sensor_id;sensor_type;location;lat;lon;timestamp;P1;durP1;ratioP1;P2;durP2;ratioP2
21188;SDS011;39071;52.420;20.896;2023-03-01T00:01:25;9.73;;;4.07;;
21188;SDS011;39071;52.420;20.896;2023-03-01T00:03:52;16.87;;;7.10;;
21188;SDS011;39071;52.420;20.896;2023-03-01T00:06:19;17.93;;;7.80;;
21188;SDS011;39071;52.420;20.896;2023-03-01T00:08:46;17.43;;;6.47;;
21188;SDS011;39071;52.420;20.896;2023-03-01T00:11:16;12.03;;;6.60;;
21188;SDS011;39071;52.420;20.896;2023-03-01T00:13:44;13.37;;;7.57;;
21188;SDS011;39071;52.420;20.896;2023-03-01T00:16:15;13.10;;;5.10;;
21188;SDS011;39071;52.420;20.896;2023-03-01T00:18:42;13.80;;;7.03;;
21188;SDS011;39071;52.420;20.896;2023-03-01T00:21:08;6.70;;;3.90;;
21188;SDS011;39071;52.420;20.896;2023-03-01T00:23:34;9.97;;;5.63;;
21188;SDS011;39071;52.420;20.896;2023-03-01T00:26:01;8.67;;;5.97;;
21188;SDS011;39071;52.420;20.896;2023-03-01T00:28:31;9.77;;;5.53;;
21188;SDS011;39071;52.420;20.896;2023-03-01T00:30:56;10.53;;;6.57;;
21188;SDS011;39071;52.420;20.896;2023-03-01T00:33:31;7.80;;;5.90;;
21188;SDS011;39071;52.420;20.896;2023-03-01T00:35:58;20.33;;;5.63;;
21188;SDS011;39071;52.420;20.896;2023-03-01T00:38:24;7.90;;;4.77;;
21188;SDS011;39071;52.420;20.896;2023-03-01T00:40:50;9.57;;;4.10;;
21188;SDS011;39071;52.420;20.896;2023-03-01T00:43:15;16.23;;;5.73;;
21188;SDS011;39071;52.420;20.896;2023-03-01T00:45:41;10.53;;;4.63;;
21188;SDS011;39071;52.420;20.896;2023-03-01T00:48:07;5.97;;;3.40;;
21188;SDS011;39071;52.420;20.896;2023-03-01T00:50:32;8.97;;;4.47;;
21188;SDS011;39071;52.420;20.896;2023-03-01T00:52:58;7.43;;;4.90;;
21188;SDS011;39071;52.420;20.896;2023-03-01T00:55:24;11.87;;;6.00;;
21188;SDS011;39071;52.420;20.896;2023-03-01T00:57:51;16.70;;;5.50;;
21188;SDS011;39071;52.420;20.896;2023-03-01T01:00:17;6.13;;;4.27;;
21188;SDS011;39071;52.420;20.896;2023-03-01T01:02:43;7.43;;;5.67;;
21188;SDS011;39071;52.420;20.896;2023-03-01T01:05:09;5.70;;;4.00;;
21188;SDS011;39071;52.420;20.896;2023-03-01T01:07:35;13.17;;;4.53;;
21188;SDS011;39071;52.420;20.896;2023-03-01T01:10:01;4.60;;;3.33;;
21188;SDS011;39071;52.420;20.896;2023-03-01T01:12:27;11.50;;;4.93;;
21188;SDS011;39071;52.420;20.896;2023-03-01T01:14:53;12.43;;;3.63;;
21188;SDS011;39071;52.420;20.896;2023-03-01T01:17:19;9.20;;;4.27;;
21188;SDS011;39071;52.420;20.896;2023-03-01T01:19:44;7.27;;;4.27;;
21188;SDS011;39071;52.420;20.896;2023-03-01T01:22:10;7.10;;;4.37;;
21188;SDS011;39071;52.420;20.896;2023-03-01T01:24:36;9.47;;;3.80;;
21188;SDS011;39071;52.420;20.896;2023-03-01T01:27:01;13.33;;;4.87;;
21188;SDS011;39071;52.420;20.896;2023-03-01T01:29:27;16.27;;;3.23;;
21188;SDS011;39071;52.420;20.896;2023-03-01T01:31:53;9.23;;;5.17;;
21188;SDS011;39071;52.420;20.896;2023-03-01T01:34:20;10.83;;;4.03;;
21188;SDS011;39071;52.420;20.896;2023-03-01T01:36:53;14.50;;;3.53;;
21188;SDS011;39071;52.420;20.896;2023-03-01T01:39:19;11.00;;;3.60;;
21188;SDS011;39071;52.420;20.896;2023-03-01T01:41:45;6.67;;;3.80;;
21188;SDS011;39071;52.420;20.896;2023-03-01T01:44:19;16.83;;;5.23;;
21188;SDS011;39071;52.420;20.896;2023-03-01T01:52:11;9.73;;;5.20;;
21188;SDS011;39071;52.420;20.896;2023-03-01T01:57:19;9.47;;;4.47;;
21188;SDS011;39071;52.420;20.896;2023-03-01T01:59:53;4.10;;;3.00;;
21188;SDS011;39071;52.420;20.896;2023-03-01T02:02:23;8.63;;;3.70;;
21188;SDS011;39071;52.420;20.896;2023-03-01T02:04:49;14.53;;;4.87;;
21188;SDS011;39071;52.420;20.896;2023-03-01T02:07:23;5.73;;;3.47;;
21188;SDS011;39071;52.420;20.896;2023-03-01T02:09:51;7.83;;;2.07;;
21188;SDS011;39071;52.420;20.896;2023-03-01T02:12:18;12.40;;;5.53;;
21188;SDS011;39071;52.420;20.896;2023-03-01T02:14:47;6.60;;;3.83;;
21188;SDS011;39071;52.420;20.896;2023-03-01T02:17:13;10.53;;;3.83;;
21188;SDS011;39071;52.420;20.896;2023-03-01T02:22:32;16.67;;;4.87;;
21188;SDS011;39071;52.420;20.896;2023-03-01T02:25:06;6.40;;;2.90;;
21188;SDS011;39071;52.420;20.896;2023-03-01T02:27:55;10.97;;;4.67;;
21188;SDS011;39071;52.420;20.896;2023-03-01T02:30:24;11.20;;;4.97;;
21188;SDS011;39071;52.420;20.896;2023-03-01T02:32:51;13.77;;;3.37;;
21188;SDS011;39071;52.420;20.896;2023-03-01T02:35:18;8.83;;;3.93;;
21188;SDS011;39071;52.420;20.896;2023-03-01T02:37:44;4.20;;;3.53;;
21188;SDS011;39071;52.420;20.896;2023-03-01T02:40:13;9.57;;;3.57;;
21188;SDS011;39071;52.420;20.896;2023-03-01T02:42:47;7.33;;;4.77;;
21188;SDS011;39071;52.420;20.896;2023-03-01T02:45:18;17.60;;;3.20;;
21188;SDS011;39071;52.420;20.896;2023-03-01T02:47:44;13.47;;;5.10;;
21188;SDS011;39071;52.420;20.896;2023-03-01T02:53:11;7.07;;;2.50;;
21188;SDS011;39071;52.420;20.896;2023-03-01T02:55:42;5.57;;;3.37;;
21188;SDS011;39071;52.420;20.896;2023-03-01T02:58:08;9.67;;;4.30;;
21188;SDS011;39071;52.420;20.896;2023-03-01T03:00:38;4.03;;;1.93;;
21188;SDS011;39071;52.420;20.896;2023-03-01T03:03:10;5.73;;;3.20;;
21188;SDS011;39071;52.420;20.896;2023-03-01T03:05:38;3.20;;;2.03;;
21188;SDS011;39071;52.420;20.896;2023-03-01T03:08:04;6.37;;;2.47;;
21188;SDS011;39071;52.420;20.896;2023-03-01T03:10:31;8.10;;;2.87;;
21188;SDS011;39071;52.420;20.896;2023-03-01T03:12:59;3.67;;;1.47;;
21188;SDS011;39071;52.420;20.896;2023-03-01T03:15:30;5.80;;;3.60;;
21188;SDS011;39071;52.420;20.896;2023-03-01T03:17:57;9.40;;;4.93;;
21188;SDS011;39071;52.420;20.896;2023-03-01T03:20:24;8.10;;;4.17;;
21188;SDS011;39071;52.420;20.896;2023-03-01T03:22:53;2.73;;;2.47;;
21188;SDS011;39071;52.420;20.896;2023-03-01T03:25:20;8.30;;;4.43;;
21188;SDS011;39071;52.420;20.896;2023-03-01T03:27:47;6.83;;;2.53;;
21188;SDS011;39071;52.420;20.896;2023-03-01T03:30:15;7.90;;;4.60;;
21188;SDS011;39071;52.420;20.896;2023-03-01T03:32:45;6.80;;;2.43;;
21188;SDS011;39071;52.420;20.896;2023-03-01T03:35:19;13.03;;;4.93;;
21188;SDS011;39071;52.420;20.896;2023-03-01T03:37:46;9.23;;;3.40;;
21188;SDS011;39071;52.420;20.896;2023-03-01T03:40:32;10.90;;;3.57;;
21188;SDS011;39071;52.420;20.896;2023-03-01T03:43:07;5.87;;;4.30;;
21188;SDS011;39071;52.420;20.896;2023-03-01T03:45:35;5.70;;;1.70;;
21188;SDS011;39071;52.420;20.896;2023-03-01T03:48:02;15.70;;;3.17;;
21188;SDS011;39071;52.420;20.896;2023-03-01T03:50:30;5.90;;;4.53;;
21188;SDS011;39071;52.420;20.896;2023-03-01T03:52:56;8.17;;;3.80;;
21188;SDS011;39071;52.420;20.896;2023-03-01T03:55:22;7.73;;;5.30;;
21188;SDS011;39071;52.420;20.896;2023-03-01T03:57:48;14.57;;;3.93;;
21188;SDS011;39071;52.420;20.896;2023-03-01T04:00:20;9.43;;;4.37;;
21188;SDS011;39071;52.420;20.896;2023-03-01T04:02:48;6.77;;;4.93;;
21188;SDS011;39071;52.420;20.896;2023-03-01T04:05:16;13.17;;;4.50;;
21188;SDS011;39071;52.420;20.896;2023-03-01T04:07:43;5.60;;;2.73;;
21188;SDS011;39071;52.420;20.896;2023-03-01T04:10:19;10.17;;;2.80;;
21188;SDS011;39071;52.420;20.896;2023-03-01T04:12:44;5.37;;;2.47;;
21188;SDS011;39071;52.420;20.896;2023-03-01T04:15:10;18.80;;;4.10;;
21188;SDS011;39071;52.420;20.896;2023-03-01T04:17:42;9.17;;;3.97;;
21188;SDS011;39071;52.420;20.896;2023-03-01T04:20:14;5.20;;;3.13;;
21188;SDS011;39071;52.420;20.896;2023-03-01T04:22:50;7.33;;;3.67;;
21188;SDS011;39071;52.420;20.896;2023-03-01T04:25:18;11.07;;;3.10;;
21188;SDS011;39071;52.420;20.896;2023-03-01T04:27:44;7.63;;;3.70;;
21188;SDS011;39071;52.420;20.896;2023-03-01T04:30:10;4.23;;;2.63;;
21188;SDS011;39071;52.420;20.896;2023-03-01T04:32:36;8.77;;;3.20;;
21188;SDS011;39071;52.420;20.896;2023-03-01T04:35:01;4.97;;;2.90;;
21188;SDS011;39071;52.420;20.896;2023-03-01T04:37:27;10.57;;;4.43;;
21188;SDS011;39071;52.420;20.896;2023-03-01T04:39:53;5.97;;;4.20;;
21188;SDS011;39071;52.420;20.896;2023-03-01T04:42:18;12.63;;;5.00;;
21188;SDS011;39071;52.420;20.896;2023-03-01T04:44:45;9.17;;;4.00;;
21188;SDS011;39071;52.420;20.896;2023-03-01T04:47:11;4.97;;;2.50;;
21188;SDS011;39071;52.420;20.896;2023-03-01T04:49:37;15.03;;;5.43;;
21188;SDS011;39071;52.420;20.896;2023-03-01T04:52:03;9.20;;;3.53;;
21188;SDS011;39071;52.420;20.896;2023-03-01T04:54:34;14.27;;;3.77;;
21188;SDS011;39071;52.420;20.896;2023-03-01T04:57:00;14.47;;;4.17;;
21188;SDS011;39071;52.420;20.896;2023-03-01T04:59:27;16.57;;;5.73;;
21188;SDS011;39071;52.420;20.896;2023-03-01T05:01:54;11.50;;;4.27;;
21188;SDS011;39071;52.420;20.896;2023-03-01T05:04:24;7.40;;;4.30;;
21188;SDS011;39071;52.420;20.896;2023-03-01T05:06:50;9.97;;;5.57;;
21188;SDS011;39071;52.420;20.896;2023-03-01T05:09:16;9.57;;;4.17;;
21188;SDS011;39071;52.420;20.896;2023-03-01T05:11:42;6.57;;;3.60;;
21188;SDS011;39071;52.420;20.896;2023-03-01T05:14:08;11.80;;;3.80;;
21188;SDS011;39071;52.420;20.896;2023-03-01T05:16:35;11.57;;;5.67;;
21188;SDS011;39071;52.420;20.896;2023-03-01T05:19:02;12.83;;;6.50;;
21188;SDS011;39071;52.420;20.896;2023-03-01T05:21:39;6.87;;;4.23;;
21188;SDS011;39071;52.420;20.896;2023-03-01T05:24:24;10.03;;;3.23;;
21188;SDS011;39071;52.420;20.896;2023-03-01T05:26:50;23.70;;;5.53;;
21188;SDS011;39071;52.420;20.896;2023-03-01T05:29:17;9.23;;;5.40;;
21188;SDS011;39071;52.420;20.896;2023-03-01T05:31:50;14.70;;;5.03;;
21188;SDS011;39071;52.420;20.896;2023-03-01T05:34:18;18.80;;;5.97;;
21188;SDS011;39071;52.420;20.896;2023-03-01T05:36:47;11.30;;;5.80;;
21188;SDS011;39071;52.420;20.896;2023-03-01T05:39:13;14.33;;;9.07;;
21188;SDS011;39071;52.420;20.896;2023-03-01T05:41:39;11.47;;;6.27;;
21188;SDS011;39071;52.420;20.896;2023-03-01T05:44:06;14.43;;;5.07;;
21188;SDS011;39071;52.420;20.896;2023-03-01T05:46:32;12.43;;;4.47;;
21188;SDS011;39071;52.420;20.896;2023-03-01T05:48:57;19.13;;;7.10;;
21188;SDS011;39071;52.420;20.896;2023-03-01T05:51:23;10.37;;;3.63;;
21188;SDS011;39071;52.420;20.896;2023-03-01T05:53:49;7.90;;;4.67;;
21188;SDS011;39071;52.420;20.896;2023-03-01T05:56:14;5.20;;;4.17;;
21188;SDS011;39071;52.420;20.896;2023-03-01T05:58:40;17.37;;;4.10;;
21188;SDS011;39071;52.420;20.896;2023-03-01T06:01:10;19.00;;;9.47;;
21188;SDS011;39071;52.420;20.896;2023-03-01T06:03:38;9.50;;;4.53;;
21188;SDS011;39071;52.420;20.896;2023-03-01T06:06:04;9.53;;;4.77;;
21188;SDS011;39071;52.420;20.896;2023-03-01T06:08:30;8.17;;;4.77;;
21188;SDS011;39071;52.420;20.896;2023-03-01T06:10:55;7.87;;;4.27;;
21188;SDS011;39071;52.420;20.896;2023-03-01T06:13:21;9.73;;;4.50;;
21188;SDS011;39071;52.420;20.896;2023-03-01T06:15:48;13.50;;;5.03;;
21188;SDS011;39071;52.420;20.896;2023-03-01T06:18:14;14.63;;;6.80;;
21188;SDS011;39071;52.420;20.896;2023-03-01T06:20:40;14.47;;;6.50;;
21188;SDS011;39071;52.420;20.896;2023-03-01T06:23:05;15.63;;;7.00;;
21188;SDS011;39071;52.420;20.896;2023-03-01T06:25:31;12.77;;;4.90;;
21188;SDS011;39071;52.420;20.896;2023-03-01T06:27:57;13.17;;;7.07;;
21188;SDS011;39071;52.420;20.896;2023-03-01T06:30:23;15.90;;;5.23;;
21188;SDS011;39071;52.420;20.896;2023-03-01T06:32:51;21.43;;;6.13;;
21188;SDS011;39071;52.420;20.896;2023-03-01T06:35:17;11.87;;;5.73;;
21188;SDS011;39071;52.420;20.896;2023-03-01T06:37:44;21.17;;;7.17;;
21188;SDS011;39071;52.420;20.896;2023-03-01T06:40:11;16.80;;;5.67;;
21188;SDS011;39071;52.420;20.896;2023-03-01T06:42:39;15.03;;;5.83;;
21188;SDS011;39071;52.420;20.896;2023-03-01T06:45:06;11.93;;;5.50;;
21188;SDS011;39071;52.420;20.896;2023-03-01T06:47:33;14.83;;;7.50;;
21188;SDS011;39071;52.420;20.896;2023-03-01T06:49:59;21.50;;;8.67;;
21188;SDS011;39071;52.420;20.896;2023-03-01T06:52:25;23.93;;;7.87;;
21188;SDS011;39071;52.420;20.896;2023-03-01T06:54:51;13.20;;;6.30;;
21188;SDS011;39071;52.420;20.896;2023-03-01T06:57:17;26.57;;;10.17;;
21188;SDS011;39071;52.420;20.896;2023-03-01T06:59:42;11.57;;;6.50;;
21188;SDS011;39071;52.420;20.896;2023-03-01T07:02:11;11.67;;;6.33;;
21188;SDS011;39071;52.420;20.896;2023-03-01T07:04:38;22.70;;;7.50;;
21188;SDS011;39071;52.420;20.896;2023-03-01T07:07:04;19.27;;;7.57;;
21188;SDS011;39071;52.420;20.896;2023-03-01T07:09:30;15.97;;;5.13;;
21188;SDS011;39071;52.420;20.896;2023-03-01T07:11:56;18.87;;;6.00;;
21188;SDS011;39071;52.420;20.896;2023-03-01T07:14:22;15.53;;;7.00;;
21188;SDS011;39071;52.420;20.896;2023-03-01T07:16:52;16.43;;;7.23;;
21188;SDS011;39071;52.420;20.896;2023-03-01T07:19:18;17.67;;;6.53;;
21188;SDS011;39071;52.420;20.896;2023-03-01T07:21:44;19.97;;;6.80;;
21188;SDS011;39071;52.420;20.896;2023-03-01T07:24:10;17.50;;;6.60;;
21188;SDS011;39071;52.420;20.896;2023-03-01T07:26:36;20.33;;;7.03;;
21188;SDS011;39071;52.420;20.896;2023-03-01T07:29:03;16.40;;;7.03;;
21188;SDS011;39071;52.420;20.896;2023-03-01T07:31:30;18.70;;;7.00;;
21188;SDS011;39071;52.420;20.896;2023-03-01T07:33:56;16.93;;;7.07;;
21188;SDS011;39071;52.420;20.896;2023-03-01T07:36:22;18.57;;;7.50;;
21188;SDS011;39071;52.420;20.896;2023-03-01T07:38:49;20.20;;;7.63;;
21188;SDS011;39071;52.420;20.896;2023-03-01T07:41:15;13.97;;;6.30;;
21188;SDS011;39071;52.420;20.896;2023-03-01T07:43:41;16.13;;;7.57;;
21188;SDS011;39071;52.420;20.896;2023-03-01T07:46:06;20.07;;;7.90;;
21188;SDS011;39071;52.420;20.896;2023-03-01T07:48:32;28.07;;;8.20;;
21188;SDS011;39071;52.420;20.896;2023-03-01T07:51:02;20.33;;;9.97;;
21188;SDS011;39071;52.420;20.896;2023-03-01T07:53:30;17.97;;;7.93;;
21188;SDS011;39071;52.420;20.896;2023-03-01T07:56:03;27.13;;;9.03;;
21188;SDS011;39071;52.420;20.896;2023-03-01T07:58:31;19.87;;;9.10;;
21188;SDS011;39071;52.420;20.896;2023-03-01T08:01:02;20.97;;;9.93;;
21188;SDS011;39071;52.420;20.896;2023-03-01T08:03:29;30.47;;;10.10;;
21188;SDS011;39071;52.420;20.896;2023-03-01T08:05:55;22.17;;;9.27;;
21188;SDS011;39071;52.420;20.896;2023-03-01T08:08:21;16.87;;;7.93;;
21188;SDS011;39071;52.420;20.896;2023-03-01T08:10:47;20.10;;;8.10;;
21188;SDS011;39071;52.420;20.896;2023-03-01T08:13:12;21.27;;;8.90;;
21188;SDS011;39071;52.420;20.896;2023-03-01T08:15:38;17.80;;;7.70;;
21188;SDS011;39071;52.420;20.896;2023-03-01T08:18:04;24.07;;;10.03;;
21188;SDS011;39071;52.420;20.896;2023-03-01T08:20:31;18.60;;;7.17;;
21188;SDS011;39071;52.420;20.896;2023-03-01T08:22:57;18.37;;;8.80;;
21188;SDS011;39071;52.420;20.896;2023-03-01T08:25:23;17.63;;;7.00;;
21188;SDS011;39071;52.420;20.896;2023-03-01T08:27:49;10.17;;;5.07;;
21188;SDS011;39071;52.420;20.896;2023-03-01T08:30:15;17.97;;;5.70;;
21188;SDS011;39071;52.420;20.896;2023-03-01T08:32:41;11.37;;;6.20;;
21188;SDS011;39071;52.420;20.896;2023-03-01T08:35:06;19.47;;;7.20;;
21188;SDS011;39071;52.420;20.896;2023-03-01T08:37:32;15.57;;;5.37;;
21188;SDS011;39071;52.420;20.896;2023-03-01T08:39:59;14.57;;;5.73;;
21188;SDS011;39071;52.420;20.896;2023-03-01T08:42:25;14.33;;;5.27;;
21188;SDS011;39071;52.420;20.896;2023-03-01T08:44:51;15.23;;;5.70;;
21188;SDS011;39071;52.420;20.896;2023-03-01T08:47:17;13.80;;;6.37;;
21188;SDS011;39071;52.420;20.896;2023-03-01T08:49:43;13.93;;;6.00;;
21188;SDS011;39071;52.420;20.896;2023-03-01T08:52:09;16.00;;;5.60;;
21188;SDS011;39071;52.420;20.896;2023-03-01T08:54:36;17.17;;;5.80;;
21188;SDS011;39071;52.420;20.896;2023-03-01T08:57:02;12.73;;;5.73;;
21188;SDS011;39071;52.420;20.896;2023-03-01T08:59:28;13.97;;;5.77;;
21188;SDS011;39071;52.420;20.896;2023-03-01T09:01:55;13.43;;;4.83;;
21188;SDS011;39071;52.420;20.896;2023-03-01T09:04:21;12.23;;;5.40;;
21188;SDS011;39071;52.420;20.896;2023-03-01T09:06:47;14.57;;;5.03;;
21188;SDS011;39071;52.420;20.896;2023-03-01T09:09:14;12.50;;;5.33;;
21188;SDS011;39071;52.420;20.896;2023-03-01T09:11:42;13.80;;;6.57;;
21188;SDS011;39071;52.420;20.896;2023-03-01T09:14:11;13.07;;;5.40;;
21188;SDS011;39071;52.420;20.896;2023-03-01T09:16:37;15.77;;;5.60;;
21188;SDS011;39071;52.420;20.896;2023-03-01T09:19:03;12.00;;;4.67;;
21188;SDS011;39071;52.420;20.896;2023-03-01T09:21:29;14.13;;;6.17;;
21188;SDS011;39071;52.420;20.896;2023-03-01T09:23:55;13.07;;;5.80;;
21188;SDS011;39071;52.420;20.896;2023-03-01T09:26:22;18.57;;;6.00;;
21188;SDS011;39071;52.420;20.896;2023-03-01T09:28:50;11.00;;;5.50;;
21188;SDS011;39071;52.420;20.896;2023-03-01T09:31:18;19.63;;;6.03;;
21188;SDS011;39071;52.420;20.896;2023-03-01T09:33:45;14.53;;;6.10;;
21188;SDS011;39071;52.420;20.896;2023-03-01T09:36:14;13.17;;;5.10;;
21188;SDS011;39071;52.420;20.896;2023-03-01T09:38:41;12.43;;;4.90;;
21188;SDS011;39071;52.420;20.896;2023-03-01T09:47:20;15.57;;;4.83;;
21188;SDS011;39071;52.420;20.896;2023-03-01T09:49:54;19.23;;;6.37;;
21188;SDS011;39071;52.420;20.896;2023-03-01T09:55:20;13.07;;;4.20;;
21188;SDS011;39071;52.420;20.896;2023-03-01T09:57:53;11.17;;;6.03;;
21188;SDS011;39071;52.420;20.896;2023-03-01T10:11:04;11.37;;;5.43;;
21188;SDS011;39071;52.420;20.896;2023-03-01T10:16:54;9.37;;;5.33;;
21188;SDS011;39071;52.420;20.896;2023-03-01T10:19:44;14.63;;;5.70;;
21188;SDS011;39071;52.420;20.896;2023-03-01T10:22:13;14.03;;;5.43;;
21188;SDS011;39071;52.420;20.896;2023-03-01T10:24:39;13.80;;;5.20;;
21188;SDS011;39071;52.420;20.896;2023-03-01T10:27:07;15.30;;;5.57;;
21188;SDS011;39071;52.420;20.896;2023-03-01T10:30:22;12.43;;;5.97;;
21188;SDS011;39071;52.420;20.896;2023-03-01T10:32:32;13.80;;;5.77;;
21188;SDS011;39071;52.420;20.896;2023-03-01T10:34:59;13.73;;;5.43;;
21188;SDS011;39071;52.420;20.896;2023-03-01T10:37:25;14.13;;;5.67;;
21188;SDS011;39071;52.420;20.896;2023-03-01T10:40:00;15.00;;;6.20;;
21188;SDS011;39071;52.420;20.896;2023-03-01T10:42:38;19.97;;;6.03;;
21188;SDS011;39071;52.420;20.896;2023-03-01T10:45:25;15.93;;;6.27;;
21188;SDS011;39071;52.420;20.896;2023-03-01T10:48:14;13.30;;;4.93;;
21188;SDS011;39071;52.420;20.896;2023-03-01T10:50:44;10.07;;;5.30;;
21188;SDS011;39071;52.420;20.896;2023-03-01T10:56:01;11.40;;;5.37;;
21188;SDS011;39071;52.420;20.896;2023-03-01T11:01:30;12.43;;;4.50;;
21188;SDS011;39071;52.420;20.896;2023-03-01T11:04:17;12.23;;;4.80;;
21188;SDS011;39071;52.420;20.896;2023-03-01T11:06:43;13.10;;;4.10;;
21188;SDS011;39071;52.420;20.896;2023-03-01T11:09:23;10.93;;;5.00;;
21188;SDS011;39071;52.420;20.896;2023-03-01T11:11:56;12.63;;;5.83;;
21188;SDS011;39071;52.420;20.896;2023-03-01T11:14:25;9.53;;;4.73;;
21188;SDS011;39071;52.420;20.896;2023-03-01T11:16:59;12.07;;;5.17;;
21188;SDS011;39071;52.420;20.896;2023-03-01T11:19:37;13.03;;;5.17;;
21188;SDS011;39071;52.420;20.896;2023-03-01T11:22:13;15.97;;;6.43;;
21188;SDS011;39071;52.420;20.896;2023-03-01T11:24:43;14.67;;;6.40;;
21188;SDS011;39071;52.420;20.896;2023-03-01T11:27:17;10.33;;;4.87;;
21188;SDS011;39071;52.420;20.896;2023-03-01T11:29:52;10.37;;;5.23;;
21188;SDS011;39071;52.420;20.896;2023-03-01T11:32:25;20.13;;;5.60;;
21188;SDS011;39071;52.420;20.896;2023-03-01T11:35:02;13.07;;;5.70;;
21188;SDS011;39071;52.420;20.896;2023-03-01T11:43:26;11.90;;;5.60;;
21188;SDS011;39071;52.420;20.896;2023-03-01T11:51:09;17.07;;;7.30;;
21188;SDS011;39071;52.420;20.896;2023-03-01T12:01:28;13.20;;;4.93;;
21188;SDS011;39071;52.420;20.896;2023-03-01T12:12:03;11.33;;;5.13;;
21188;SDS011;39071;52.420;20.896;2023-03-01T12:20:32;12.30;;;5.17;;
21188;SDS011;39071;52.420;20.896;2023-03-01T12:25:43;14.13;;;6.23;;
21188;SDS011;39071;52.420;20.896;2023-03-01T12:42:13;10.97;;;5.23;;
21188;SDS011;39071;52.420;20.896;2023-03-01T12:50:42;11.37;;;5.03;;
21188;SDS011;39071;52.420;20.896;2023-03-01T12:53:20;11.27;;;5.37;;
21188;SDS011;39071;52.420;20.896;2023-03-01T12:55:50;13.40;;;4.53;;
21188;SDS011;39071;52.420;20.896;2023-03-01T13:01:14;8.03;;;4.10;;
21188;SDS011;39071;52.420;20.896;2023-03-01T13:04:01;6.13;;;3.77;;
21188;SDS011;39071;52.420;20.896;2023-03-01T13:06:52;10.13;;;4.03;;
21188;SDS011;39071;52.420;20.896;2023-03-01T13:17:49;8.03;;;4.60;;
21188;SDS011;39071;52.420;20.896;2023-03-01T13:20:21;9.20;;;3.47;;
21188;SDS011;39071;52.420;20.896;2023-03-01T13:23:39;7.07;;;3.70;;
21188;SDS011;39071;52.420;20.896;2023-03-01T13:34:02;8.93;;;4.83;;
21188;SDS011;39071;52.420;20.896;2023-03-01T13:39:05;5.80;;;3.20;;
21188;SDS011;39071;52.420;20.896;2023-03-01T13:41:56;12.33;;;5.23;;
21188;SDS011;39071;52.420;20.896;2023-03-01T13:46:52;6.20;;;3.83;;
21188;SDS011;39071;52.420;20.896;2023-03-01T13:49:25;8.93;;;4.97;;
21188;SDS011;39071;52.420;20.896;2023-03-01T13:51:53;11.60;;;3.67;;
21188;SDS011;39071;52.420;20.896;2023-03-01T13:54:29;7.23;;;3.43;;
21188;SDS011;39071;52.420;20.896;2023-03-01T13:56:58;12.23;;;4.03;;
21188;SDS011;39071;52.420;20.896;2023-03-01T13:59:25;11.50;;;4.90;;
21188;SDS011;39071;52.420;20.896;2023-03-01T14:01:55;10.60;;;4.40;;
21188;SDS011;39071;52.420;20.896;2023-03-01T14:09:43;10.50;;;4.60;;
21188;SDS011;39071;52.420;20.896;2023-03-01T14:20:01;11.40;;;4.60;;
21188;SDS011;39071;52.420;20.896;2023-03-01T14:22:47;10.27;;;4.93;;
21188;SDS011;39071;52.420;20.896;2023-03-01T14:25:26;8.00;;;4.57;;
21188;SDS011;39071;52.420;20.896;2023-03-01T14:28:04;12.60;;;4.10;;
21188;SDS011;39071;52.420;20.896;2023-03-01T14:30:45;15.90;;;4.30;;
21188;SDS011;39071;52.420;20.896;2023-03-01T14:33:23;16.20;;;5.57;;
21188;SDS011;39071;52.420;20.896;2023-03-01T14:36:00;7.97;;;4.03;;
21188;SDS011;39071;52.420;20.896;2023-03-01T14:38:39;11.47;;;5.33;;
21188;SDS011;39071;52.420;20.896;2023-03-01T14:41:11;14.40;;;6.57;;
21188;SDS011;39071;52.420;20.896;2023-03-01T14:43:44;8.50;;;4.60;;
21188;SDS011;39071;52.420;20.896;2023-03-01T14:46:23;11.27;;;4.67;;
21188;SDS011;39071;52.420;20.896;2023-03-01T14:48:51;7.67;;;4.03;;
21188;SDS011;39071;52.420;20.896;2023-03-01T14:51:21;9.93;;;5.43;;
21188;SDS011;39071;52.420;20.896;2023-03-01T14:53:47;11.00;;;4.53;;
21188;SDS011;39071;52.420;20.896;2023-03-01T14:56:13;14.80;;;5.60;;
21188;SDS011;39071;52.420;20.896;2023-03-01T14:58:44;10.40;;;5.13;;
21188;SDS011;39071;52.420;20.896;2023-03-01T15:01:14;14.37;;;6.87;;
21188;SDS011;39071;52.420;20.896;2023-03-01T15:03:42;8.47;;;3.77;;
21188;SDS011;39071;52.420;20.896;2023-03-01T15:06:12;17.47;;;5.70;;
21188;SDS011;39071;52.420;20.896;2023-03-01T15:08:42;12.80;;;4.37;;
21188;SDS011;39071;52.420;20.896;2023-03-01T15:11:26;11.10;;;4.23;;
21188;SDS011;39071;52.420;20.896;2023-03-01T15:13:54;11.20;;;5.00;;
21188;SDS011;39071;52.420;20.896;2023-03-01T15:16:24;19.37;;;7.00;;
21188;SDS011;39071;52.420;20.896;2023-03-01T15:21:32;14.10;;;5.60;;
21188;SDS011;39071;52.420;20.896;2023-03-01T15:26:44;9.07;;;4.80;;
21188;SDS011;39071;52.420;20.896;2023-03-01T15:29:33;16.53;;;5.77;;
21188;SDS011;39071;52.420;20.896;2023-03-01T15:35:32;10.17;;;4.43;;
21188;SDS011;39071;52.420;20.896;2023-03-01T15:40:54;9.83;;;4.70;;
21188;SDS011;39071;52.420;20.896;2023-03-01T15:43:38;13.10;;;5.83;;
21188;SDS011;39071;52.420;20.896;2023-03-01T15:46:12;14.50;;;5.03;;
21188;SDS011;39071;52.420;20.896;2023-03-01T15:48:47;15.70;;;4.13;;
21188;SDS011;39071;52.420;20.896;2023-03-01T15:51:17;10.20;;;3.63;;
21188;SDS011;39071;52.420;20.896;2023-03-01T15:53:46;10.03;;;4.83;;
21188;SDS011;39071;52.420;20.896;2023-03-01T15:56:16;16.43;;;5.70;;
21188;SDS011;39071;52.420;20.896;2023-03-01T15:58:42;11.40;;;4.73;;
21188;SDS011;39071;52.420;20.896;2023-03-01T16:01:10;15.87;;;6.27;;
21188;SDS011;39071;52.420;20.896;2023-03-01T16:03:38;15.70;;;6.57;;
21188;SDS011;39071;52.420;20.896;2023-03-01T16:06:04;10.37;;;3.83;;
21188;SDS011;39071;52.420;20.896;2023-03-01T16:08:29;15.27;;;5.43;;
21188;SDS011;39071;52.420;20.896;2023-03-01T16:10:55;10.37;;;4.70;;
21188;SDS011;39071;52.420;20.896;2023-03-01T16:13:21;13.90;;;5.20;;
21188;SDS011;39071;52.420;20.896;2023-03-01T16:15:47;15.27;;;7.67;;
21188;SDS011;39071;52.420;20.896;2023-03-01T16:18:13;13.17;;;5.67;;
21188;SDS011;39071;52.420;20.896;2023-03-01T16:20:39;14.13;;;5.57;;
21188;SDS011;39071;52.420;20.896;2023-03-01T16:23:06;12.40;;;5.73;;
21188;SDS011;39071;52.420;20.896;2023-03-01T16:25:36;10.03;;;5.57;;
21188;SDS011;39071;52.420;20.896;2023-03-01T16:28:02;18.73;;;5.60;;
21188;SDS011;39071;52.420;20.896;2023-03-01T16:30:33;16.10;;;6.50;;
21188;SDS011;39071;52.420;20.896;2023-03-01T16:33:00;16.70;;;6.47;;
21188;SDS011;39071;52.420;20.896;2023-03-01T16:35:26;14.40;;;5.67;;
21188;SDS011;39071;52.420;20.896;2023-03-01T16:37:52;11.93;;;5.03;;
21188;SDS011;39071;52.420;20.896;2023-03-01T16:40:23;12.13;;;5.50;;
21188;SDS011;39071;52.420;20.896;2023-03-01T16:42:54;10.70;;;5.13;;
21188;SDS011;39071;52.420;20.896;2023-03-01T16:45:24;9.97;;;5.77;;
21188;SDS011;39071;52.420;20.896;2023-03-01T16:47:51;13.60;;;5.53;;
21188;SDS011;39071;52.420;20.896;2023-03-01T16:50:17;13.77;;;6.50;;
21188;SDS011;39071;52.420;20.896;2023-03-01T16:52:43;18.47;;;6.63;;
21188;SDS011;39071;52.420;20.896;2023-03-01T16:55:09;16.80;;;7.27;;
21188;SDS011;39071;52.420;20.896;2023-03-01T16:57:38;16.77;;;8.97;;
21188;SDS011;39071;52.420;20.896;2023-03-01T17:00:07;19.20;;;7.00;;
21188;SDS011;39071;52.420;20.896;2023-03-01T17:02:38;16.90;;;6.63;;
21188;SDS011;39071;52.420;20.896;2023-03-01T17:05:06;13.23;;;6.83;;